Terminal Aerodrome Forecast
Issued by NWS Omaha/Valley, NE

Home | Current Version | Previous Version | Text Only | Print | Product List | Glossary On
Versions: 1 2 3 4 5 6 7 8 9 10 11 12 13 14 15 16 17 18 19 20 21 22 23 24 25 26 27 28 29 30 31 32 33 34
000
FTUS43 KOAX 272320
TAFLNK
TAF
KLNK 272320Z 2800/2824 17012KT P6SM SCT150
      TEMPO 2810/2814 6SM -SHRA SCT050
     FM281500 20010KT P6SM OVC100
     FM281800 33012G20KT P6SM SCT080 BKN150=

USA.gov is the U.S. government's official web portal to all federal, state and local government web resources and services.